Time;durP1;ratioP1;P1;durP2;ratioP2;P2;SDS_P1;SDS_P2;PMS_P1;PMS_P2;Temp;Humidity;BMP_temperature;BMP_pressure;BME280_temperature;BME280_humidity;BME280_pressure;Samples;Min_cycle;Max_cycle;Signal;HPM_P1;HPM_P2
2023/07/06 00:01:01;;;;;;;0.35;0.35;;;25.60;80.10;;;;;;5097211;27;20216;-86
2023/07/06 00:03:32;;;;;;;0.82;0.82;;;25.60;80.20;;;;;;5119044;27;20601;-84
2023/07/06 00:06:01;;;;;;;0.57;0.50;;;25.60;80.20;;;;;;5095322;27;20238;-84
2023/07/06 00:08:31;;;;;;;0.95;0.70;;;25.50;80.20;;;;;;5099450;27;20275;-85
2023/07/06 00:10:59;;;;;;;0.93;0.55;;;25.50;80.30;;;;;;5092862;27;20205;-83
2023/07/06 00:13:29;;;;;;;0.20;0.20;;;25.50;80.60;;;;;;5116647;27;20189;-84
2023/07/06 00:15:59;;;;;;;0.40;0.40;;;25.50;80.80;;;;;;5110376;27;20283;-84
2023/07/06 00:18:28;;;;;;;0.88;0.88;;;25.40;80.80;;;;;;5115839;27;20272;-83
2023/07/06 00:20:58;;;;;;;0.57;0.57;;;25.40;81.30;;;;;;5102688;27;20196;-84
2023/07/06 00:23:28;;;;;;;1.73;1.17;;;25.40;81.60;;;;;;5102902;27;20186;-84
2023/07/06 00:25:56;;;;;;;0.80;0.60;;;25.30;82.20;;;;;;5108175;27;20615;-85
2023/07/06 00:28:28;;;;;;;1.02;0.73;;;25.40;82.30;;;;;;5107058;27;21014;-84
2023/07/06 00:31:03;;;;;;;0.98;0.80;;;25.30;82.50;;;;;;5111862;27;20195;-85
2023/07/06 00:33:31;;;;;;;0.47;0.47;;;25.30;82.90;;;;;;5109320;27;20196;-85
2023/07/06 00:36:03;;;;;;;0.63;0.63;;;25.20;83.30;;;;;;5103799;27;20193;-85
2023/07/06 00:38:31;;;;;;;1.05;0.77;;;25.20;83.30;;;;;;5105207;27;20284;-87
2023/07/06 00:41:00;;;;;;;1.98;0.38;;;25.20;83.10;;;;;;5113984;27;20199;-85
2023/07/06 00:43:46;;;;;;;1.73;0.77;;;25.20;83.00;;;;;;5092426;28;20236;-83
2023/07/06 00:46:15;;;;;;;1.48;1.08;;;25.20;83.40;;;;;;5091344;27;20184;-85
2023/07/06 00:48:46;;;;;;;2.15;1.20;;;25.20;83.30;;;;;;5103969;28;20231;-83
2023/07/06 00:51:18;;;;;;;1.05;0.65;;;25.10;83.30;;;;;;5115495;27;20184;-85
2023/07/06 00:53:52;;;;;;;1.58;1.00;;;25.20;83.70;;;;;;5102802;27;20194;-83
2023/07/06 00:56:25;;;;;;;0.40;0.40;;;25.10;83.90;;;;;;5102042;27;20198;-86
2023/07/06 00:59:02;;;;;;;0.45;0.38;;;25.10;84.00;;;;;;5117043;27;20191;-84
2023/07/06 01:01:32;;;;;;;1.05;0.30;;;25.10;84.30;;;;;;5115461;27;20191;-85
2023/07/06 01:04:03;;;;;;;0.82;0.80;;;25.00;84.20;;;;;;5095130;27;20193;-84
2023/07/06 01:06:35;;;;;;;1.15;1.05;;;25.00;84.40;;;;;;5100946;27;20197;-85
2023/07/06 01:09:05;;;;;;;0.52;0.50;;;25.00;84.40;;;;;;5060559;28;20219;-83
2023/07/06 01:11:35;;;;;;;0.85;0.50;;;25.00;84.50;;;;;;5075973;28;20285;-83
2023/07/06 01:14:04;;;;;;;0.90;0.65;;;25.00;84.50;;;;;;5064334;28;20207;-84
2023/07/06 01:16:37;;;;;;;1.25;0.88;;;25.00;85.00;;;;;;5055749;28;20679;-85
2023/07/06 01:19:24;;;;;;;1.35;1.05;;;24.90;85.40;;;;;;5049962;28;20195;-85
2023/07/06 01:22:04;;;;;;;0.88;0.70;;;24.90;85.40;;;;;;5064437;28;20202;-84
2023/07/06 01:25:05;;;;;;;0.30;0.30;;;24.90;85.40;;;;;;5062753;28;20648;-84
2023/07/06 01:27:50;;;;;;;0.43;0.43;;;24.90;85.20;;;;;;5063314;28;20198;-83
2023/07/06 01:30:45;;;;;;;0.30;0.30;;;24.90;85.10;;;;;;5064619;28;20199;-83
2023/07/06 01:33:20;;;;;;;1.65;1.20;;;24.80;85.00;;;;;;5064258;28;20183;-85
2023/07/06 01:35:56;;;;;;;0.30;0.30;;;24.80;85.00;;;;;;5054974;28;20187;-84
2023/07/06 01:38:26;;;;;;;1.85;1.38;;;24.80;85.00;;;;;;5066823;28;20193;-86
2023/07/06 01:40:55;;;;;;;0.50;0.50;;;24.80;85.20;;;;;;5070507;28;20202;-84
2023/07/06 01:43:25;;;;;;;0.52;0.52;;;24.80;85.40;;;;;;5065571;28;20276;-85
2023/07/06 01:45:54;;;;;;;0.65;0.65;;;24.80;85.20;;;;;;5068559;28;20567;-82
2023/07/06 01:48:25;;;;;;;0.75;0.60;;;24.80;85.30;;;;;;5072590;28;20227;-85
2023/07/06 01:51:06;;;;;;;1.23;0.77;;;24.70;85.40;;;;;;5052878;28;20204;-85
2023/07/06 01:53:40;;;;;;;0.85;0.77;;;24.80;85.40;;;;;;5064051;28;20208;-85
2023/07/06 01:56:14;;;;;;;0.30;0.30;;;24.70;85.30;;;;;;5064571;28;20202;-84
2023/07/06 01:58:50;;;;;;;0.73;0.50;;;24.70;85.30;;;;;;5060839;28;20190;-82
2023/07/06 02:01:23;;;;;;;0.55;0.55;;;24.60;85.40;;;;;;5056527;28;20550;-82
2023/07/06 02:03:55;;;;;;;2.50;0.70;;;24.60;85.40;;;;;;5051593;28;20293;-81
2023/07/06 02:06:23;;;;;;;0.80;0.80;;;24.60;85.80;;;;;;5059636;28;20192;-83
2023/07/06 02:08:52;;;;;;;0.73;0.70;;;24.60;85.70;;;;;;5105901;28;20630;-83
2023/07/06 02:11:23;;;;;;;1.30;0.80;;;24.60;86.00;;;;;;5089338;28;20193;-83
2023/07/06 02:13:52;;;;;;;0.65;0.65;;;24.60;85.80;;;;;;5119032;27;20192;-84
2023/07/06 02:16:20;;;;;;;1.23;1.08;;;24.50;85.70;;;;;;5112327;27;20201;-85
2023/07/06 02:18:49;;;;;;;0.65;0.65;;;24.50;86.00;;;;;;5122397;27;20637;-84
2023/07/06 02:21:19;;;;;;;0.63;0.63;;;24.50;86.10;;;;;;5120419;27;20189;-82
2023/07/06 02:23:47;;;;;;;0.40;0.40;;;24.50;86.10;;;;;;5112063;27;20194;-83
2023/07/06 02:26:15;;;;;;;1.00;0.68;;;24.50;86.10;;;;;;5111297;27;20190;-84
2023/07/06 02:28:44;;;;;;;0.60;0.60;;;24.40;86.00;;;;;;5098045;28;20749;-84
2023/07/06 02:31:12;;;;;;;2.20;0.60;;;24.40;86.80;;;;;;5095772;27;21008;-83
2023/07/06 02:33:41;;;;;;;0.40;0.40;;;24.40;86.10;;;;;;5106488;27;20672;-85
2023/07/06 02:36:09;;;;;;;0.65;0.65;;;24.40;86.60;;;;;;5102750;27;20185;-83
2023/07/06 02:38:39;;;;;;;2.03;0.80;;;24.40;86.60;;;;;;5109846;27;20197;-85
2023/07/06 02:41:07;;;;;;;1.50;1.23;;;24.40;86.90;;;;;;5097939;28;20200;-84
2023/07/06 02:43:36;;;;;;;5.00;1.63;;;24.30;86.90;;;;;;5107110;27;20193;-86
2023/07/06 02:46:04;;;;;;;1.02;0.90;;;24.30;87.20;;;;;;5106646;27;20189;-84
2023/07/06 02:48:33;;;;;;;1.70;0.88;;;24.30;87.20;;;;;;5111625;27;20228;-84
2023/07/06 02:51:02;;;;;;;1.58;0.95;;;24.30;87.10;;;;;;5104380;28;20193;-85
2023/07/06 02:53:30;;;;;;;1.48;1.38;;;24.30;87.00;;;;;;5107324;28;20196;-84
2023/07/06 02:56:00;;;;;;;0.73;0.73;;;24.30;87.10;;;;;;5105990;28;20192;-85
2023/07/06 02:58:28;;;;;;;1.15;1.08;;;24.30;87.20;;;;;;5100096;27;20201;-84
2023/07/06 03:00:57;;;;;;;0.73;0.70;;;24.30;87.30;;;;;;5095967;28;20193;-83
2023/07/06 03:03:26;;;;;;;1.95;1.42;;;24.30;90.00;;;;;;5110072;28;20192;-85
2023/07/06 03:05:54;;;;;;;8.30;4.00;;;24.20;90.00;;;;;;5105663;27;20212;-83
2023/07/06 03:08:25;;;;;;;1.00;0.90;;;24.20;89.80;;;;;;5102184;28;20259;-83
2023/07/06 03:10:55;;;;;;;0.77;0.75;;;24.20;89.30;;;;;;5112116;28;20274;-85
2023/07/06 03:13:28;;;;;;;1.55;1.23;;;24.20;90.00;;;;;;5107794;27;20193;-85
2023/07/06 03:15:58;;;;;;;0.45;0.45;;;24.20;90.20;;;;;;5109100;28;20197;-84
2023/07/06 03:18:27;;;;;;;1.15;0.73;;;24.20;90.00;;;;;;5106838;27;20197;-83
2023/07/06 03:20:56;;;;;;;1.75;1.27;;;24.20;90.30;;;;;;5113646;27;20194;-84
2023/07/06 03:23:24;;;;;;;1.70;1.02;;;24.10;90.20;;;;;;5119325;27;20574;-84
2023/07/06 03:25:53;;;;;;;0.95;0.85;;;24.20;90.10;;;;;;5099782;27;20856;-84
2023/07/06 03:28:24;;;;;;;3.60;1.75;;;24.20;90.00;;;;;;5119957;27;20721;-83
2023/07/06 03:30:56;;;;;;;2.58;1.38;;;24.20;90.60;;;;;;5095081;27;20217;-83
2023/07/06 03:33:25;;;;;;;3.38;2.22;;;24.20;90.90;;;;;;5111750;27;20193;-83
2023/07/06 03:35:54;;;;;;;1.40;0.52;;;24.20;90.80;;;;;;5113569;27;20212;-83
2023/07/06 03:38:26;;;;;;;1.77;1.45;;;24.20;90.60;;;;;;5110098;27;20204;-86
2023/07/06 03:40:54;;;;;;;1.50;1.13;;;24.20;91.10;;;;;;5108877;27;20189;-83
2023/07/06 03:43:24;;;;;;;0.35;0.35;;;24.20;91.40;;;;;;5095425;28;20194;-81
2023/07/06 03:45:52;;;;;;;1.83;0.93;;;24.20;91.40;;;;;;5105926;27;20194;-83
2023/07/06 03:48:21;;;;;;;0.52;0.52;;;24.20;91.20;;;;;;5115235;27;20242;-84
2023/07/06 03:50:52;;;;;;;1.42;0.52;;;24.20;91.10;;;;;;5093461;27;20222;-84
2023/07/06 03:53:21;;;;;;;1.13;1.02;;;24.20;91.70;;;;;;5103159;27;20189;-82
2023/07/06 03:55:53;;;;;;;0.50;0.50;;;24.20;91.80;;;;;;5093442;28;20190;-84
2023/07/06 03:58:24;;;;;;;0.82;0.80;;;24.20;91.60;;;;;;5107333;27;20343;-83
2023/07/06 04:00:52;;;;;;;1.27;0.75;;;24.20;91.30;;;;;;5095357;27;20573;-84
2023/07/06 04:03:21;;;;;;;0.50;0.50;;;24.30;91.20;;;;;;5113687;27;20197;-83
2023/07/06 04:05:49;;;;;;;0.93;0.80;;;24.30;91.50;;;;;;5096623;27;20609;-83
2023/07/06 04:08:23;;;;;;;0.82;0.77;;;24.30;91.70;;;;;;5115923;27;20247;-84
2023/07/06 04:10:51;;;;;;;0.60;0.60;;;24.30;91.50;;;;;;5103809;27;20637;-84
2023/07/06 04:13:19;;;;;;;2.67;1.67;;;24.30;91.40;;;;;;5108487;27;20215;-85
2023/07/06 04:15:52;;;;;;;0.30;0.30;;;24.30;91.30;;;;;;5094210;27;20606;-84
2023/07/06 04:18:21;;;;;;;0.50;0.40;;;24.30;91.30;;;;;;5108950;27;20195;-84
2023/07/06 04:20:52;;;;;;;1.15;1.02;;;24.30;91.60;;;;;;5097534;27;20288;-84
2023/07/06 04:23:21;;;;;;;2.13;1.25;;;24.30;91.60;;;;;;5110934;27;20200;-82
2023/07/06 04:25:49;;;;;;;1.65;1.25;;;24.30;91.50;;;;;;5101337;27;20200;-87
2023/07/06 04:28:17;;;;;;;0.75;0.75;;;24.30;91.50;;;;;;5098070;27;20197;-83
2023/07/06 04:30:49;;;;;;;2.63;0.80;;;24.40;91.50;;;;;;5098897;28;20660;-84
2023/07/06 04:33:20;;;;;;;0.95;0.88;;;24.40;91.50;;;;;;5095779;27;20227;-83
2023/07/06 04:35:52;;;;;;;1.10;1.00;;;24.50;91.60;;;;;;5091784;28;20247;-84
2023/07/06 04:38:21;;;;;;;1.20;0.93;;;24.50;91.70;;;;;;5100155;27;20193;-83
2023/07/06 04:40:51;;;;;;;1.92;1.27;;;24.50;91.50;;;;;;5101467;27;20193;-83
2023/07/06 04:43:20;;;;;;;1.88;0.88;;;24.60;91.30;;;;;;5095124;27;20224;-83
2023/07/06 04:45:48;;;;;;;0.68;0.68;;;24.60;91.20;;;;;;5099146;27;20197;-83
2023/07/06 04:48:17;;;;;;;1.05;0.88;;;24.70;91.20;;;;;;5102435;27;20288;-83
2023/07/06 04:50:47;;;;;;;1.67;1.25;;;24.70;91.20;;;;;;5105301;27;20435;-82
2023/07/06 04:53:16;;;;;;;0.98;0.88;;;24.80;91.10;;;;;;5104464;27;20192;-83
2023/07/06 04:55:45;;;;;;;1.83;0.93;;;24.80;91.00;;;;;;5095029;27;20196;-84
2023/07/06 04:58:14;;;;;;;0.43;0.43;;;24.90;90.90;;;;;;5094208;27;20568;-84
2023/07/06 05:00:45;;;;;;;0.50;0.50;;;25.00;90.80;;;;;;5102280;27;20581;-83
2023/07/06 05:03:14;;;;;;;0.50;0.50;;;25.00;90.70;;;;;;5105593;28;20194;-82
2023/07/06 05:05:45;;;;;;;1.52;0.77;;;25.10;90.50;;;;;;5096281;27;20193;-83
2023/07/06 05:08:17;;;;;;;1.98;1.52;;;25.10;90.40;;;;;;5104864;27;20679;-85
2023/07/06 05:10:48;;;;;;;0.75;0.73;;;25.20;90.30;;;;;;5098548;27;20584;-82
2023/07/06 05:13:17;;;;;;;0.93;0.82;;;25.30;90.30;;;;;;5101042;28;20444;-84
2023/07/06 05:15:46;;;;;;;0.73;0.50;;;25.30;90.20;;;;;;5106394;27;20196;-83
2023/07/06 05:18:14;;;;;;;1.75;0.98;;;25.40;90.10;;;;;;5106130;27;20545;-84
2023/07/06 05:20:42;;;;;;;0.63;0.63;;;25.40;90.10;;;;;;5113267;27;20197;-85
2023/07/06 05:23:12;;;;;;;1.02;0.82;;;25.50;90.00;;;;;;5102027;27;20241;-83
2023/07/06 05:25:42;;;;;;;0.40;0.40;;;25.60;90.00;;;;;;5095095;28;20650;-84
2023/07/06 05:28:11;;;;;;;0.57;0.45;;;25.70;90.00;;;;;;5103146;28;20201;-84
2023/07/06 05:30:40;;;;;;;0.88;0.50;;;25.80;89.90;;;;;;5095224;28;20216;-84
2023/07/06 05:33:08;;;;;;;0.25;0.25;;;25.80;89.70;;;;;;5109520;27;20185;-84
2023/07/06 05:35:37;;;;;;;1.17;0.73;;;25.90;89.50;;;;;;5102714;27;20201;-84
2023/07/06 05:38:07;;;;;;;0.47;0.47;;;26.00;89.50;;;;;;5098899;27;20194;-85
2023/07/06 05:40:35;;;;;;;0.70;0.70;;;26.10;89.40;;;;;;5104020;27;20668;-85
2023/07/06 05:43:05;;;;;;;2.30;1.05;;;26.10;89.20;;;;;;5104358;27;20199;-85
2023/07/06 05:45:33;;;;;;;1.83;0.65;;;26.20;88.70;;;;;;5094037;27;20208;-84
2023/07/06 05:48:02;;;;;;;1.02;0.95;;;26.30;88.50;;;;;;5102860;27;20207;-84
2023/07/06 05:50:31;;;;;;;0.75;0.75;;;26.40;88.30;;;;;;5101661;28;20294;-85
2023/07/06 05:53:00;;;;;;;3.40;1.08;;;26.50;88.10;;;;;;5096580;27;20658;-83
2023/07/06 05:55:29;;;;;;;1.52;1.08;;;26.50;87.70;;;;;;5100438;27;20196;-82
2023/07/06 05:57:58;;;;;;;0.73;0.73;;;26.60;87.50;;;;;;5101857;27;20212;-85
2023/07/06 06:00:28;;;;;;;0.80;0.70;;;26.70;87.50;;;;;;5095405;27;20185;-86
2023/07/06 06:02:56;;;;;;;2.42;0.60;;;26.80;87.30;;;;;;5104587;27;20185;-86
2023/07/06 06:05:25;;;;;;;0.60;0.57;;;26.80;86.80;;;;;;5113813;27;20589;-84
2023/07/06 06:07:53;;;;;;;0.95;0.63;;;26.90;86.80;;;;;;5091900;28;20225;-85
2023/07/06 06:10:22;;;;;;;0.47;0.47;;;27.00;86.70;;;;;;5099155;28;20201;-86
2023/07/06 06:12:51;;;;;;;3.08;0.90;;;27.00;86.60;;;;;;5115288;27;20253;-86
2023/07/06 06:15:19;;;;;;;0.77;0.60;;;27.10;86.50;;;;;;5102146;27;20204;-86
2023/07/06 06:17:50;;;;;;;0.55;0.55;;;27.20;85.70;;;;;;5088298;28;20216;-85
2023/07/06 06:20:19;;;;;;;1.13;1.00;;;27.30;85.70;;;;;;5090970;28;20217;-86
2023/07/06 06:22:47;;;;;;;0.90;0.85;;;27.40;85.70;;;;;;5102392;28;20684;-83
2023/07/06 06:25:16;;;;;;;1.33;0.57;;;27.50;85.50;;;;;;5106830;28;20193;-82
2023/07/06 06:27:46;;;;;;;4.47;0.73;;;27.50;85.00;;;;;;5099364;28;20193;-83
2023/07/06 06:30:16;;;;;;;3.65;0.73;;;27.60;85.00;;;;;;5097818;27;20239;-84
2023/07/06 06:32:44;;;;;;;0.40;0.40;;;27.60;84.90;;;;;;5096393;28;20693;-84
2023/07/06 06:35:25;;;;;;;4.15;0.82;;;27.70;84.30;;;;;;5091321;28;20283;-85
2023/07/06 06:37:54;;;;;;;0.70;0.43;;;27.80;84.10;;;;;;5103641;28;20564;-83
2023/07/06 06:40:23;;;;;;;0.63;0.63;;;27.90;84.10;;;;;;5099455;27;20666;-83
2023/07/06 06:42:52;;;;;;;2.53;0.50;;;27.90;83.90;;;;;;5090314;28;20674;-85
2023/07/06 06:45:21;;;;;;;1.40;0.50;;;28.00;83.90;;;;;;5099958;28;20190;-85
2023/07/06 06:47:50;;;;;;;1.08;0.75;;;28.10;84.00;;;;;;5106348;28;20280;-86
2023/07/06 06:50:20;;;;;;;0.55;0.55;;;28.10;83.20;;;;;;5105896;28;20193;-86
2023/07/06 06:52:50;;;;;;;2.00;1.13;;;28.20;82.80;;;;;;5095142;28;20225;-84
2023/07/06 06:55:19;;;;;;;0.82;0.73;;;28.20;82.70;;;;;;5095861;28;20201;-83
2023/07/06 06:57:48;;;;;;;0.52;0.50;;;28.30;81.70;;;;;;5102820;27;20190;-83
2023/07/06 07:00:17;;;;;;;0.73;0.73;;;28.30;81.80;;;;;;5093947;27;20745;-84
2023/07/06 07:02:47;;;;;;;0.75;0.68;;;28.40;81.70;;;;;;5105698;28;20204;-82
2023/07/06 07:05:16;;;;;;;0.30;0.30;;;28.50;81.80;;;;;;5103422;27;20197;-85
2023/07/06 07:07:45;;;;;;;0.60;0.40;;;28.50;81.60;;;;;;5118520;27;20745;-85
2023/07/06 07:10:15;;;;;;;0.35;0.35;;;28.60;81.70;;;;;;5089881;28;20250;-85
2023/07/06 07:12:44;;;;;;;0.95;0.68;;;28.60;81.60;;;;;;5100822;28;20595;-85
2023/07/06 07:15:15;;;;;;;1.58;0.50;;;28.70;81.30;;;;;;5097153;28;22274;-87
2023/07/06 07:17:44;;;;;;;1.35;1.02;;;28.80;81.30;;;;;;5102038;27;20297;-86
2023/07/06 07:20:14;;;;;;;0.77;0.52;;;28.80;80.90;;;;;;5099533;28;20625;-85
2023/07/06 07:22:44;;;;;;;0.75;0.70;;;28.80;80.60;;;;;;5106229;28;20307;-87
2023/07/06 07:25:17;;;;;;;1.77;1.05;;;28.80;80.60;;;;;;5111954;28;20249;-86
2023/07/06 07:27:47;;;;;;;0.80;0.70;;;28.90;80.50;;;;;;5117543;27;20251;-87
2023/07/06 07:30:16;;;;;;;1.25;0.60;;;28.90;80.00;;;;;;5099857;27;20201;-86
2023/07/06 07:32:47;;;;;;;1.02;0.70;;;29.00;79.90;;;;;;5094507;28;20221;-85
2023/07/06 07:35:16;;;;;;;0.80;0.80;;;29.00;79.80;;;;;;5092617;28;20220;-84
2023/07/06 07:37:50;;;;;;;1.10;0.70;;;29.10;79.70;;;;;;5112318;27;20223;-87
2023/07/06 07:40:22;;;;;;;0.82;0.70;;;29.20;79.90;;;;;;5101260;27;20642;-85
2023/07/06 07:42:51;;;;;;;0.82;0.82;;;29.20;80.60;;;;;;5107121;28;20592;-86
2023/07/06 07:45:19;;;;;;;2.40;1.13;;;29.20;79.20;;;;;;5098977;27;20562;-86
2023/07/06 07:47:48;;;;;;;0.70;0.70;;;29.30;78.80;;;;;;5106801;28;20638;-87
2023/07/06 07:50:17;;;;;;;1.23;0.80;;;29.30;78.70;;;;;;5100040;28;20537;-86
2023/07/06 07:52:48;;;;;;;0.75;0.70;;;29.40;78.40;;;;;;5097742;28;20673;-86
2023/07/06 07:55:17;;;;;;;1.23;0.90;;;29.40;78.20;;;;;;5102751;27;20205;-86
2023/07/06 07:57:47;;;;;;;0.60;0.60;;;29.50;77.80;;;;;;5103355;28;20255;-88
2023/07/06 08:00:16;;;;;;;0.73;0.70;;;29.50;77.80;;;;;;5113549;27;20199;-86
2023/07/06 08:02:45;;;;;;;1.90;1.38;;;29.50;77.80;;;;;;5111572;27;20197;-87
2023/07/06 08:05:16;;;;;;;1.25;1.15;;;29.60;77.50;;;;;;5098412;28;20723;-86
2023/07/06 08:07:45;;;;;;;0.88;0.85;;;29.60;77.40;;;;;;5099935;27;20753;-88
2023/07/06 08:10:15;;;;;;;1.98;0.52;;;29.60;77.20;;;;;;5108673;27;20202;-86
2023/07/06 08:12:44;;;;;;;0.77;0.77;;;29.70;76.10;;;;;;5092759;28;20248;-85
2023/07/06 08:15:14;;;;;;;2.00;1.27;;;29.70;76.30;;;;;;5101030;27;20185;-87
2023/07/06 08:17:43;;;;;;;1.42;0.70;;;29.80;75.70;;;;;;5106033;28;20198;-84
2023/07/06 08:20:13;;;;;;;0.32;0.32;;;29.80;74.90;;;;;;5116316;27;20211;-86
2023/07/06 08:23:02;;;;;;;0.63;0.38;;;29.90;75.10;;;;;;5099297;27;20201;-88
2023/07/06 08:25:37;;;;;;;1.42;0.98;;;29.90;75.30;;;;;;5114517;27;20207;-87
2023/07/06 08:28:06;;;;;;;0.35;0.35;;;30.00;75.00;;;;;;5107562;27;20638;-88
2023/07/06 08:30:38;;;;;;;0.60;0.60;;;30.00;75.10;;;;;;5100028;27;20189;-87
2023/07/06 08:33:07;;;;;;;0.50;0.50;;;30.10;75.00;;;;;;5111701;28;20293;-87
2023/07/06 08:35:35;;;;;;;0.68;0.65;;;30.10;74.60;;;;;;5107617;27;20206;-90
2023/07/06 08:38:04;;;;;;;0.80;0.77;;;30.20;74.20;;;;;;5096155;28;20258;-87
2023/07/06 08:40:34;;;;;;;1.05;0.80;;;30.20;73.60;;;;;;5093310;28;20192;-87
2023/07/06 08:43:08;;;;;;;2.33;1.02;;;30.30;73.50;;;;;;5105568;27;20197;-89
2023/07/06 08:45:41;;;;;;;0.82;0.60;;;30.30;72.70;;;;;;5103542;28;20233;-88
2023/07/06 08:48:13;;;;;;;2.58;0.98;;;30.30;72.20;;;;;;5094948;27;20217;-87
2023/07/06 08:50:48;;;;;;;0.50;0.50;;;30.40;72.60;;;;;;5113371;27;20717;-86
2023/07/06 08:53:17;;;;;;;0.77;0.77;;;30.50;71.80;;;;;;5098860;28;20213;-87
2023/07/06 08:55:46;;;;;;;0.40;0.40;;;30.50;70.20;;;;;;5098660;28;20193;-87
2023/07/06 08:58:22;;;;;;;0.57;0.57;;;30.50;70.70;;;;;;5089891;27;20201;-88
2023/07/06 09:00:55;;;;;;;0.68;0.65;;;30.60;70.50;;;;;;5100445;28;20284;-87
2023/07/06 09:03:46;;;;;;;0.60;0.57;;;30.60;70.10;;;;;;5091491;27;20289;-87
2023/07/06 09:06:19;;;;;;;0.88;0.73;;;30.70;70.50;;;;;;5091290;28;20190;-89
2023/07/06 09:08:48;;;;;;;0.50;0.50;;;30.70;70.40;;;;;;5089822;28;20602;-87
2023/07/06 09:11:17;;;;;;;0.75;0.60;;;30.80;70.60;;;;;;5107657;27;20613;-86
2023/07/06 09:13:51;;;;;;;0.63;0.63;;;30.80;69.50;;;;;;5106098;27;20300;-89
2023/07/06 09:16:21;;;;;;;1.00;0.70;;;30.90;69.60;;;;;;5096178;27;20204;-87
2023/07/06 09:18:50;;;;;;;0.50;0.50;;;30.90;69.70;;;;;;5097127;27;20296;-87
2023/07/06 09:21:22;;;;;;;0.40;0.40;;;31.00;69.40;;;;;;5110896;27;20279;-87
2023/07/06 09:23:50;;;;;;;1.50;0.55;;;31.10;69.50;;;;;;5098609;27;20216;-87
2023/07/06 09:26:24;;;;;;;0.90;0.68;;;31.10;69.20;;;;;;5093893;27;20225;-89
2023/07/06 09:29:13;;;;;;;1.02;0.93;;;31.20;68.80;;;;;;5119956;27;20283;-86
2023/07/06 09:31:44;;;;;;;1.67;1.00;;;31.20;68.80;;;;;;5094297;27;20471;-85
2023/07/06 09:34:26;;;;;;;0.82;0.75;;;31.20;68.10;;;;;;5109838;27;20231;-88
2023/07/06 09:36:54;;;;;;;0.50;0.50;;;31.30;67.80;;;;;;5108132;27;20204;-87
2023/07/06 09:39:24;;;;;;;0.90;0.57;;;31.30;67.50;;;;;;5099751;27;20247;-86
2023/07/06 09:41:54;;;;;;;0.80;0.80;;;31.30;66.70;;;;;;5095891;28;20280;-86
2023/07/06 09:44:27;;;;;;;1.02;0.60;;;31.40;67.10;;;;;;5099946;27;20201;-87
2023/07/06 09:46:58;;;;;;;0.40;0.40;;;31.50;66.40;;;;;;5096039;28;20200;-85
2023/07/06 09:49:33;;;;;;;0.60;0.60;;;31.50;66.60;;;;;;5091587;28;20683;-84
2023/07/06 09:52:04;;;;;;;0.63;0.52;;;31.60;66.40;;;;;;5105057;28;20192;-85
2023/07/06 09:54:41;;;;;;;0.50;0.40;;;31.70;66.80;;;;;;5096094;28;20225;-82
2023/07/06 09:57:13;;;;;;;1.90;0.85;;;31.70;66.70;;;;;;5103861;27;20261;-84
2023/07/06 09:59:46;;;;;;;0.40;0.35;;;31.70;65.90;;;;;;5103594;28;20200;-84
2023/07/06 10:02:29;;;;;;;0.55;0.52;;;31.80;65.40;;;;;;5092940;28;20202;-83
2023/07/06 10:05:05;;;;;;;0.80;0.65;;;31.90;63.60;;;;;;5099909;27;20188;-86
2023/07/06 10:07:42;;;;;;;1.08;0.93;;;31.90;63.10;;;;;;5093254;27;20567;-83
2023/07/06 10:10:20;;;;;;;0.40;0.40;;;31.90;60.40;;;;;;5094437;28;20193;-85
2023/07/06 10:12:58;;;;;;;1.35;0.70;;;31.90;60.30;;;;;;5108034;27;20231;-84
2023/07/06 10:15:33;;;;;;;2.72;0.73;;;31.90;59.40;;;;;;5095447;27;20217;-84
2023/07/06 10:18:09;;;;;;;1.98;1.02;;;32.00;60.30;;;;;;5092000;28;20207;-85
2023/07/06 10:20:45;;;;;;;4.38;0.70;;;32.10;60.50;;;;;;5097353;28;20200;-85
2023/07/06 10:23:32;;;;;;;0.73;0.65;;;32.10;60.20;;;;;;5096640;28;20552;-85
2023/07/06 10:26:10;;;;;;;1.27;1.05;;;32.20;57.90;;;;;;5103567;27;20193;-85
2023/07/06 10:28:41;;;;;;;1.10;0.85;;;32.20;58.60;;;;;;5096174;27;20274;-83
2023/07/06 10:31:16;;;;;;;1.17;0.75;;;32.30;59.20;;;;;;5102841;27;20194;-82
2023/07/06 10:33:56;;;;;;;0.47;0.47;;;32.40;58.30;;;;;;5102701;27;20200;-83
2023/07/06 10:36:32;;;;;;;0.55;0.52;;;32.50;58.50;;;;;;5103624;27;20204;-83
2023/07/06 10:39:03;;;;;;;0.80;0.77;;;32.50;58.70;;;;;;5094958;28;22011;-83
2023/07/06 10:41:34;;;;;;;1.20;0.77;;;32.60;57.90;;;;;;5103408;27;20188;-84
2023/07/06 10:44:43;;;;;;;0.80;0.68;;;32.60;56.40;;;;;;5096292;28;20192;-82
2023/07/06 10:47:40;;;;;;;1.33;0.98;;;32.60;56.50;;;;;;5096653;28;20653;-83
2023/07/06 10:50:29;;;;;;;1.48;1.15;;;32.60;55.80;;;;;;5093815;28;20197;-83
2023/07/06 10:53:02;;;;;;;0.52;0.50;;;32.70;56.80;;;;;;5096882;28;20741;-84
2023/07/06 10:55:34;;;;;;;2.17;0.82;;;32.70;57.40;;;;;;5096774;28;20280;-83
2023/07/06 10:58:16;;;;;;;0.32;0.32;;;32.80;57.90;;;;;;5104864;28;20196;-85
2023/07/06 11:00:45;;;;;;;0.50;0.50;;;32.90;58.20;;;;;;5107688;28;20204;-84
2023/07/06 11:03:18;;;;;;;0.75;0.50;;;33.00;58.50;;;;;;5112600;27;20203;-84
2023/07/06 11:05:58;;;;;;;0.43;0.43;;;33.00;58.60;;;;;;5104087;27;20196;-83
2023/07/06 11:09:10;;;;;;;1.75;1.15;;;33.10;57.50;;;;;;5098661;28;20248;-83
2023/07/06 11:11:41;;;;;;;0.65;0.65;;;33.20;57.00;;;;;;5094311;28;20209;-82
2023/07/06 11:14:33;;;;;;;1.02;0.93;;;33.20;56.80;;;;;;5093806;28;20253;-85
2023/07/06 11:17:05;;;;;;;0.90;0.52;;;33.20;55.70;;;;;;5091044;28;20190;-83
2023/07/06 11:19:37;;;;;;;1.88;0.98;;;33.30;55.90;;;;;;5092520;28;20197;-83
2023/07/06 11:22:20;;;;;;;2.00;1.25;;;33.40;56.20;;;;;;5096011;28;20190;-85
2023/07/06 11:24:50;;;;;;;1.20;0.82;;;33.50;56.20;;;;;;5092960;28;20194;-84
2023/07/06 11:27:29;;;;;;;0.73;0.63;;;33.50;55.60;;;;;;5094627;28;20190;-84
2023/07/06 11:30:04;;;;;;;1.85;1.17;;;33.50;54.80;;;;;;5103872;28;20206;-84
2023/07/06 11:32:38;;;;;;;1.20;0.82;;;33.60;54.70;;;;;;5104557;28;20196;-85
2023/07/06 11:35:24;;;;;;;1.75;1.05;;;33.60;55.00;;;;;;5093629;28;20248;-82
2023/07/06 11:38:06;;;;;;;0.77;0.65;;;33.60;53.90;;;;;;5102567;27;20279;-85
2023/07/06 11:40:42;;;;;;;2.45;0.88;;;33.40;53.70;;;;;;5101787;27;20185;-85
2023/07/06 11:43:35;;;;;;;0.73;0.50;;;33.40;54.10;;;;;;5103635;27;20188;-83
2023/07/06 11:46:19;;;;;;;1.65;0.98;;;33.40;54.40;;;;;;5099331;27;20747;-82
2023/07/06 11:49:09;;;;;;;0.90;0.52;;;33.40;54.90;;;;;;5094032;28;20263;-82
2023/07/06 11:51:38;;;;;;;1.45;1.00;;;33.30;55.20;;;;;;5107726;27;20283;-81
2023/07/06 11:54:29;;;;;;;0.85;0.82;;;33.30;53.90;;;;;;5105653;27;20596;-83
2023/07/06 11:59:42;;;;;;;3.22;1.00;;;33.10;54.10;;;;;;5128811;27;20267;-83
2023/07/06 12:02:17;;;;;;;0.75;0.75;;;33.20;54.20;;;;;;5103135;27;20655;-82
2023/07/06 12:04:46;;;;;;;1.35;0.98;;;33.30;54.00;;;;;;5108782;27;20262;-83
2023/07/06 12:07:26;;;;;;;1.50;1.20;;;33.30;54.60;;;;;;5107596;27;20774;-84
2023/07/06 12:09:56;;;;;;;0.50;0.50;;;33.30;55.10;;;;;;5104704;27;20189;-85
2023/07/06 12:12:26;;;;;;;0.50;0.45;;;33.30;55.50;;;;;;5109685;27;20280;-83
2023/07/06 12:14:57;;;;;;;1.00;0.52;;;33.20;55.70;;;;;;5095706;28;20229;-83
2023/07/06 12:17:29;;;;;;;0.90;0.80;;;33.30;55.80;;;;;;5092564;28;20234;-84
2023/07/06 12:19:59;;;;;;;0.70;0.70;;;33.20;56.10;;;;;;5105960;27;20181;-85
2023/07/06 12:22:27;;;;;;;0.52;0.43;;;33.20;56.30;;;;;;5100116;27;20217;-84
2023/07/06 12:24:58;;;;;;;1.25;0.85;;;33.20;56.50;;;;;;5107217;27;20627;-84
2023/07/06 12:27:30;;;;;;;0.52;0.50;;;33.40;56.70;;;;;;5104516;28;20220;-83
2023/07/06 12:30:06;;;;;;;0.68;0.57;;;33.40;57.00;;;;;;5107672;27;20197;-83
2023/07/06 12:32:36;;;;;;;0.52;0.47;;;33.40;56.80;;;;;;5097638;27;20188;-85
2023/07/06 12:35:08;;;;;;;0.55;0.50;;;33.40;56.60;;;;;;5103723;27;20746;-85
2023/07/06 12:37:41;;;;;;;4.80;1.00;;;33.40;56.70;;;;;;5095125;27;20566;-84
2023/07/06 12:40:21;;;;;;;0.30;0.30;;;33.40;56.70;;;;;;5106420;27;20185;-84
2023/07/06 12:42:51;;;;;;;1.55;0.68;;;33.50;56.80;;;;;;5117518;27;20279;-84
2023/07/06 12:45:22;;;;;;;0.50;0.50;;;33.70;57.00;;;;;;5101420;28;20189;-83
2023/07/06 12:47:57;;;;;;;0.80;0.68;;;33.70;56.70;;;;;;5093814;28;20469;-84
2023/07/06 12:50:35;;;;;;;1.20;1.10;;;33.80;56.60;;;;;;5092944;27;20658;-84
2023/07/06 12:53:08;;;;;;;1.75;0.70;;;33.90;55.80;;;;;;5098401;27;20184;-83
2023/07/06 12:55:41;;;;;;;0.73;0.70;;;34.10;56.10;;;;;;5092575;28;20216;-84
2023/07/06 12:58:18;;;;;;;0.75;0.75;;;34.20;56.00;;;;;;5093042;27;20626;-83
2023/07/06 13:00:50;;;;;;;0.45;0.45;;;34.20;55.50;;;;;;5104178;28;20649;-84
2023/07/06 13:03:19;;;;;;;1.25;1.08;;;34.30;54.60;;;;;;5096867;28;20266;-83
2023/07/06 13:05:55;;;;;;;1.23;1.10;;;34.40;54.50;;;;;;5095730;28;20730;-84
2023/07/06 13:08:25;;;;;;;2.28;1.30;;;34.40;54.20;;;;;;5091535;27;20233;-84
2023/07/06 13:11:03;;;;;;;2.00;1.23;;;34.50;54.30;;;;;;5095677;28;20197;-83
2023/07/06 13:13:36;;;;;;;0.85;0.70;;;34.50;51.40;;;;;;5101316;27;20188;-85
2023/07/06 13:16:09;;;;;;;2.33;0.93;;;34.50;50.00;;;;;;5104964;28;20798;-83